createdAt,value
2023-02-26T00:02:07.408Z,6.70
2023-02-26T00:04:37.723Z,6.70
2023-02-26T00:07:07.386Z,6.60
2023-02-26T00:09:36.878Z,6.70
2023-02-26T00:12:06.644Z,6.70
2023-02-26T00:14:36.352Z,6.70
2023-02-26T00:17:30.128Z,6.70
2023-02-26T00:20:00.171Z,6.60
2023-02-26T00:22:32.857Z,6.60
2023-02-26T00:25:03.144Z,6.60
2023-02-26T00:27:32.849Z,6.70
2023-02-26T00:30:05.522Z,6.60
2023-02-26T00:32:35.532Z,6.70
2023-02-26T00:35:07.019Z,6.70
2023-02-26T00:37:39.795Z,6.70
2023-02-26T00:40:10.207Z,6.70
2023-02-26T00:42:38.942Z,6.70
2023-02-26T00:45:09.393Z,6.70
2023-02-26T00:48:03.387Z,6.80
2023-02-26T00:50:34.229Z,6.70
2023-02-26T00:53:18.735Z,6.70
2023-02-26T00:55:47.370Z,6.70
2023-02-26T00:58:16.868Z,6.70
2023-02-26T01:00:48.247Z,6.70
2023-02-26T01:03:18.133Z,6.60
2023-02-26T01:05:48.048Z,6.70
2023-02-26T01:08:23.298Z,6.60
2023-02-26T01:10:53.313Z,6.70
2023-02-26T01:13:22.962Z,6.70
2023-02-26T01:15:55.727Z,6.70
2023-02-26T01:18:31.252Z,6.60
2023-02-26T01:21:04.178Z,6.60
2023-02-26T01:23:37.193Z,6.60
2023-02-26T01:26:18.782Z,6.60
2023-02-26T01:28:49.257Z,6.50
2023-02-26T01:31:28.371Z,6.40
2023-02-26T01:33:58.725Z,6.50
2023-02-26T01:36:31.193Z,6.50
2023-02-26T01:39:10.648Z,6.40
2023-02-26T01:41:41.415Z,6.40
2023-02-26T01:44:16.797Z,6.30
2023-02-26T01:47:15.789Z,6.30
2023-02-26T01:49:45.866Z,6.30
2023-02-26T01:52:51.932Z,6.40
2023-02-26T01:55:25.513Z,6.40
2023-02-26T01:57:58.264Z,6.30
2023-02-26T02:00:27.940Z,6.30
2023-02-26T02:02:57.631Z,6.30
2023-02-26T02:05:33.593Z,6.20
2023-02-26T02:08:03.162Z,6.30
2023-02-26T02:10:33.716Z,6.20
2023-02-26T02:13:31.896Z,6.20
2023-02-26T02:16:11.311Z,6.30
2023-02-26T02:18:44.919Z,6.20
2023-02-26T02:21:41.753Z,6.20
2023-02-26T02:24:26.503Z,6.20
2023-02-26T02:27:04.789Z,6.20
2023-02-26T02:29:49.605Z,6.30
2023-02-26T02:32:25.008Z,6.20
2023-02-26T02:34:58.032Z,6.20
2023-02-26T02:37:31.222Z,6.20
2023-02-26T02:40:18.611Z,6.10
2023-02-26T02:43:02.855Z,6.20
2023-02-26T02:45:38.611Z,6.20
2023-02-26T02:48:09.157Z,6.10
2023-02-26T02:50:44.753Z,6.10
2023-02-26T02:53:20.026Z,6.20
2023-02-26T02:55:55.964Z,6.10
2023-02-26T02:58:28.469Z,6.10
2023-02-26T03:01:01.424Z,6.10
2023-02-26T03:03:45.753Z,6.10
2023-02-26T03:06:15.976Z,6.10
2023-02-26T03:08:47.427Z,6.00
2023-02-26T03:11:18.368Z,6.00
2023-02-26T03:13:50.086Z,5.90
2023-02-26T03:16:59.634Z,5.90
2023-02-26T03:19:44.810Z,6.00
2023-02-26T03:22:16.397Z,6.00
2023-02-26T03:25:50.150Z,5.90
2023-02-26T03:28:30.559Z,5.90
2023-02-26T03:31:20.706Z,6.00
2023-02-26T03:34:08.376Z,5.90
2023-02-26T03:36:40.939Z,6.00
2023-02-26T03:39:45.259Z,5.80
2023-02-26T03:42:23.736Z,5.90
2023-02-26T03:45:01.069Z,6.00
2023-02-26T03:47:33.354Z,6.00
2023-02-26T03:50:20.630Z,5.90
2023-02-26T03:52:53.284Z,5.90
2023-02-26T03:55:30.448Z,5.90
2023-02-26T03:58:01.816Z,5.90
2023-02-26T04:00:35.009Z,5.90
2023-02-26T04:03:10.701Z,5.80
2023-02-26T04:05:43.338Z,5.70
2023-02-26T04:08:12.839Z,5.90
2023-02-26T04:10:45.684Z,5.90
2023-02-26T04:13:15.326Z,5.80
2023-02-26T04:15:44.821Z,5.80
2023-02-26T04:18:14.499Z,5.80
2023-02-26T04:20:43.935Z,5.80
2023-02-26T04:23:13.561Z,5.70
2023-02-26T04:25:43.439Z,5.70
2023-02-26T04:28:14.263Z,5.70
2023-02-26T04:30:43.962Z,5.70
2023-02-26T04:33:16.516Z,5.80
2023-02-26T04:35:46.329Z,5.80
2023-02-26T04:38:15.933Z,5.70
2023-02-26T04:40:47.189Z,5.70
2023-02-26T04:43:16.840Z,5.70
2023-02-26T04:45:49.306Z,5.70
2023-02-26T04:48:19.151Z,5.70
2023-02-26T04:50:48.783Z,5.70
2023-02-26T04:53:18.382Z,5.60
2023-02-26T04:55:52.254Z,5.60
2023-02-26T04:58:21.280Z,5.50
2023-02-26T05:00:53.724Z,5.60
2023-02-26T05:03:24.010Z,5.60
2023-02-26T05:05:53.569Z,5.50
2023-02-26T05:08:23.128Z,5.50
2023-02-26T05:10:53.339Z,5.50
2023-02-26T05:13:22.834Z,5.50
2023-02-26T05:15:56.887Z,5.60
2023-02-26T05:18:26.360Z,5.50
2023-02-26T05:20:57.291Z,5.50
2023-02-26T05:23:27.448Z,5.50
2023-02-26T05:25:58.270Z,5.40
2023-02-26T05:28:28.402Z,5.40
2023-02-26T05:30:59.032Z,5.40
2023-02-26T05:33:29.542Z,5.40
2023-02-26T05:35:58.967Z,5.30
2023-02-26T05:38:28.503Z,5.30
2023-02-26T05:40:59.364Z,5.30
2023-02-26T05:43:29.294Z,5.30
2023-02-26T05:45:58.788Z,5.40
2023-02-26T05:48:28.651Z,5.30
2023-02-26T05:50:58.268Z,5.30
2023-02-26T05:53:27.698Z,5.30
2023-02-26T05:55:57.231Z,5.20
2023-02-26T05:58:26.929Z,5.10
2023-02-26T06:00:56.413Z,5.10
2023-02-26T06:03:25.837Z,5.10
2023-02-26T06:05:55.859Z,5.10
2023-02-26T06:08:25.423Z,5.10
2023-02-26T06:10:55.047Z,5.00
2023-02-26T06:13:24.582Z,5.00
2023-02-26T06:15:54.052Z,4.90
2023-02-26T06:18:24.670Z,4.90
2023-02-26T06:20:54.220Z,4.90
2023-02-26T06:23:23.655Z,4.90
2023-02-26T06:25:54.042Z,4.90
2023-02-26T06:28:24.812Z,5.00
2023-02-26T06:30:54.541Z,5.00
2023-02-26T06:33:25.426Z,4.90
2023-02-26T06:35:56.116Z,5.00
2023-02-26T06:38:25.775Z,5.00
2023-02-26T06:40:55.330Z,4.90
2023-02-26T06:43:24.764Z,5.00
2023-02-26T06:45:54.506Z,4.90
2023-02-26T06:48:24.001Z,4.90
2023-02-26T06:50:53.564Z,4.90
2023-02-26T06:53:23.414Z,4.90
2023-02-26T06:55:54.790Z,4.90
2023-02-26T06:58:24.893Z,4.90
2023-02-26T07:00:54.594Z,5.00
2023-02-26T07:03:24.255Z,4.90
2023-02-26T07:05:54.563Z,4.90
2023-02-26T07:08:24.355Z,4.90
2023-02-26T07:10:54.348Z,4.90
2023-02-26T07:13:23.778Z,4.90
2023-02-26T07:15:53.571Z,5.00
2023-02-26T07:18:23.207Z,5.00
2023-02-26T07:20:53.062Z,4.90
2023-02-26T07:23:22.507Z,4.90
2023-02-26T07:25:52.108Z,5.00
2023-02-26T07:28:21.501Z,5.00
2023-02-26T07:30:51.214Z,5.00
2023-02-26T07:33:21.217Z,5.00
2023-02-26T07:35:50.728Z,4.90
2023-02-26T07:38:20.588Z,5.00
2023-02-26T07:40:50.645Z,5.10
2023-02-26T07:43:20.571Z,5.10
2023-02-26T07:45:52.566Z,5.20
2023-02-26T07:48:22.066Z,5.10
2023-02-26T07:50:54.309Z,5.20
2023-02-26T07:53:23.795Z,5.20
2023-02-26T07:55:53.301Z,5.30
2023-02-26T07:58:23.228Z,5.30
2023-02-26T08:00:52.989Z,5.40
2023-02-26T08:03:23.255Z,5.40
2023-02-26T08:05:52.769Z,5.50
2023-02-26T08:08:22.266Z,5.50
2023-02-26T08:10:52.194Z,5.60
2023-02-26T08:13:22.179Z,5.70
2023-02-26T08:15:51.790Z,5.60
2023-02-26T08:18:21.342Z,5.60
2023-02-26T08:20:52.724Z,5.70
2023-02-26T08:23:22.284Z,5.80
2023-02-26T08:25:51.718Z,5.80
2023-02-26T08:28:21.128Z,5.80
2023-02-26T08:30:53.913Z,5.90
2023-02-26T08:33:25.689Z,5.90
2023-02-26T08:35:56.705Z,6.10
2023-02-26T08:38:28.407Z,6.20
2023-02-26T08:40:58.138Z,6.30
2023-02-26T08:43:27.539Z,6.30
2023-02-26T08:45:59.566Z,6.60
2023-02-26T08:48:29.062Z,6.90
2023-02-26T08:50:58.550Z,7.80
2023-02-26T08:53:28.613Z,8.20
2023-02-26T08:55:58.101Z,9.00
2023-02-26T08:58:27.588Z,9.70
2023-02-26T09:00:57.275Z,9.90
2023-02-26T09:03:26.685Z,9.60
2023-02-26T09:05:56.195Z,9.90
2023-02-26T09:08:25.961Z,9.90
2023-02-26T09:10:55.371Z,10.40
2023-02-26T09:13:24.816Z,10.60
2023-02-26T09:15:54.571Z,10.30
2023-02-26T09:18:24.280Z,10.70
2023-02-26T09:20:54.094Z,11.30
2023-02-26T09:23:23.591Z,11.50
2023-02-26T09:25:57.629Z,11.70
2023-02-26T09:28:27.307Z,12.00
2023-02-26T09:30:57.022Z,12.10
2023-02-26T09:33:26.501Z,12.10
2023-02-26T09:35:56.082Z,11.70
2023-02-26T09:38:25.857Z,11.80
2023-02-26T09:41:13.370Z,11.50
2023-02-26T09:44:05.440Z,11.10
2023-02-26T09:46:47.232Z,11.60
2023-02-26T09:49:22.709Z,12.00
2023-02-26T09:51:55.207Z,12.20
2023-02-26T09:54:25.597Z,12.20
2023-02-26T09:56:58.003Z,12.60
2023-02-26T09:59:30.754Z,13.20
2023-02-26T10:02:03.508Z,12.70
2023-02-26T10:04:54.151Z,13.20
2023-02-26T10:07:27.030Z,13.30
2023-02-26T10:10:16.493Z,12.80
2023-02-26T10:12:47.469Z,12.60
2023-02-26T10:15:32.136Z,12.90
2023-02-26T10:18:13.771Z,13.00
2023-02-26T10:20:52.889Z,12.70
2023-02-26T10:23:52.827Z,12.90
2023-02-26T10:26:34.560Z,12.90
2023-02-26T10:29:28.351Z,13.10
2023-02-26T10:32:18.017Z,12.80
2023-02-26T10:34:59.298Z,12.70
2023-02-26T10:37:53.297Z,13.30
2023-02-26T10:40:37.580Z,13.70
2023-02-26T10:43:22.513Z,13.60
2023-02-26T10:46:28.635Z,13.90
2023-02-26T10:49:10.439Z,13.50
2023-02-26T10:51:41.334Z,13.80
2023-02-26T10:54:41.265Z,14.20
2023-02-26T10:57:16.343Z,15.00
2023-02-26T10:59:46.151Z,14.00
2023-02-26T11:02:27.737Z,13.50
2023-02-26T11:05:07.202Z,12.30
2023-02-26T11:07:32.385Z,11.20
2023-02-26T11:10:02.809Z,10.80
2023-02-26T11:12:34.977Z,12.50
2023-02-26T11:15:05.626Z,13.00
2023-02-26T11:17:35.395Z,12.10
2023-02-26T11:20:09.027Z,12.30
2023-02-26T11:22:40.589Z,11.60
2023-02-26T11:25:15.556Z,11.20
2023-02-26T11:27:48.540Z,12.50
2023-02-26T11:30:24.154Z,12.50
2023-02-26T11:32:56.835Z,13.20
2023-02-26T11:35:28.004Z,13.20
2023-02-26T11:38:00.866Z,12.30
2023-02-26T11:40:42.513Z,11.10
2023-02-26T11:43:15.408Z,10.90
2023-02-26T11:45:47.631Z,10.00
2023-02-26T11:48:20.343Z,10.00
2023-02-26T11:50:50.130Z,10.60
2023-02-26T11:53:28.905Z,10.60
2023-02-26T11:56:04.015Z,10.10
2023-02-26T11:58:39.308Z,9.30
2023-02-26T12:01:11.675Z,9.50
2023-02-26T12:03:43.777Z,10.50
2023-02-26T12:06:22.231Z,10.40
2023-02-26T12:08:53.514Z,9.90
2023-02-26T12:11:41.718Z,9.50
2023-02-26T12:14:22.837Z,9.60
2023-02-26T12:17:04.358Z,9.20
2023-02-26T12:19:53.694Z,9.00
2023-02-26T12:22:48.913Z,10.30
2023-02-26T12:25:25.421Z,9.90
2023-02-26T12:28:06.608Z,9.80
2023-02-26T12:30:39.113Z,9.30
2023-02-26T12:33:17.611Z,9.10
2023-02-26T12:36:06.691Z,8.60
2023-02-26T12:38:42.312Z,8.60
2023-02-26T12:41:29.902Z,9.40
2023-02-26T12:44:02.627Z,10.00
2023-02-26T12:46:54.564Z,9.80
2023-02-26T12:49:44.782Z,9.50
2023-02-26T12:52:38.414Z,10.10
2023-02-26T12:55:26.451Z,9.70
2023-02-26T12:58:10.890Z,9.90
2023-02-26T13:01:01.606Z,10.10
2023-02-26T13:03:46.058Z,11.10
2023-02-26T13:06:41.498Z,11.10
2023-02-26T13:09:25.995Z,11.40
2023-02-26T13:12:16.856Z,10.40
2023-02-26T13:15:05.853Z,10.10
2023-02-26T13:17:50.027Z,10.50
2023-02-26T13:20:22.531Z,10.70
2023-02-26T13:22:57.601Z,10.50
2023-02-26T13:25:32.862Z,10.40
2023-02-26T13:28:05.713Z,10.70
2023-02-26T13:30:43.936Z,10.80
2023-02-26T13:33:19.679Z,10.70
2023-02-26T13:35:51.422Z,11.00
2023-02-26T13:38:49.683Z,10.00
2023-02-26T13:41:25.549Z,10.20
2023-02-26T13:44:07.516Z,10.50
2023-02-26T13:46:49.136Z,10.70
2023-02-26T13:49:24.969Z,10.70
2023-02-26T13:51:56.004Z,10.90
2023-02-26T13:54:46.505Z,10.90
2023-02-26T13:57:46.294Z,10.80
2023-02-26T14:00:35.776Z,10.80
2023-02-26T14:03:19.887Z,11.10
2023-02-26T14:06:00.949Z,11.30
2023-02-26T14:08:42.927Z,10.60
2023-02-26T14:11:37.010Z,10.30
2023-02-26T14:14:15.424Z,9.70
2023-02-26T14:16:48.099Z,9.90
2023-02-26T14:19:26.302Z,9.80
2023-02-26T14:21:59.268Z,9.60
2023-02-26T14:24:40.385Z,9.80
2023-02-26T14:27:16.052Z,10.10
2023-02-26T14:30:14.442Z,10.10
2023-02-26T14:32:50.457Z,10.30
2023-02-26T14:35:28.456Z,10.30
2023-02-26T14:38:04.269Z,10.20
2023-02-26T14:40:42.488Z,9.90
2023-02-26T14:43:15.089Z,9.80
2023-02-26T14:45:46.213Z,9.70
2023-02-26T14:48:21.893Z,9.30
2023-02-26T14:51:06.488Z,8.80
2023-02-26T14:54:07.799Z,8.70
2023-02-26T14:56:50.256Z,8.80
2023-02-26T14:59:33.502Z,8.90
2023-02-26T15:02:12.262Z,8.80
2023-02-26T15:04:48.628Z,8.90
2023-02-26T15:07:40.632Z,9.10
2023-02-26T15:10:23.634Z,9.10
2023-02-26T15:13:05.127Z,9.30
2023-02-26T15:16:07.900Z,9.50
2023-02-26T15:19:15.397Z,9.40
2023-02-26T15:21:50.671Z,8.90
2023-02-26T15:24:20.638Z,8.70
2023-02-26T15:26:55.928Z,8.60
2023-02-26T15:29:28.588Z,8.70
2023-02-26T15:32:03.964Z,8.70
2023-02-26T15:34:34.258Z,8.20
2023-02-26T15:37:04.247Z,8.10
2023-02-26T15:39:33.671Z,8.00
2023-02-26T15:42:05.349Z,7.90
2023-02-26T15:44:38.491Z,7.90
2023-02-26T15:47:07.321Z,7.80
2023-02-26T15:49:39.813Z,7.70
2023-02-26T15:52:11.908Z,7.70
2023-02-26T15:54:44.731Z,7.70
2023-02-26T15:57:16.001Z,7.90
2023-02-26T15:59:48.639Z,7.80
2023-02-26T16:02:21.560Z,8.00
2023-02-26T16:04:52.644Z,7.90
2023-02-26T16:07:23.014Z,7.80
2023-02-26T16:09:54.974Z,7.60
2023-02-26T16:12:28.041Z,7.50
2023-02-26T16:15:06.975Z,7.60
2023-02-26T16:17:38.900Z,7.60
2023-02-26T16:20:11.649Z,7.70
2023-02-26T16:22:47.045Z,7.60
2023-02-26T16:25:24.978Z,7.60
2023-02-26T16:28:02.695Z,7.50
2023-02-26T16:30:38.356Z,7.50
2023-02-26T16:33:15.973Z,7.50
2023-02-26T16:35:48.416Z,7.30
2023-02-26T16:38:24.261Z,7.30
2023-02-26T16:41:03.821Z,7.40
2023-02-26T16:43:48.661Z,7.20
2023-02-26T16:46:32.991Z,7.20
2023-02-26T16:49:14.739Z,7.10
2023-02-26T16:51:44.460Z,7.10
2023-02-26T16:54:22.718Z,7.00
2023-02-26T16:56:57.914Z,7.00
2023-02-26T16:59:33.821Z,6.80
2023-02-26T17:02:15.249Z,6.80
2023-02-26T17:04:46.334Z,6.80
2023-02-26T17:07:30.700Z,6.70
2023-02-26T17:10:10.539Z,6.60
2023-02-26T17:12:48.833Z,6.60
2023-02-26T17:15:21.497Z,6.60
2023-02-26T17:17:51.032Z,6.50
2023-02-26T17:20:20.531Z,6.50
2023-02-26T17:22:51.657Z,6.40
2023-02-26T17:25:21.730Z,6.30
2023-02-26T17:27:51.841Z,6.30
2023-02-26T17:30:24.350Z,6.30
2023-02-26T17:32:53.765Z,6.20
2023-02-26T17:35:23.619Z,6.20
2023-02-26T17:37:54.266Z,6.20
2023-02-26T17:40:27.556Z,6.20
2023-02-26T17:42:57.655Z,6.10
2023-02-26T17:45:27.222Z,6.10
2023-02-26T17:47:56.715Z,6.10
2023-02-26T17:50:47.221Z,6.00
2023-02-26T17:53:18.984Z,6.00
2023-02-26T17:55:50.388Z,6.00
2023-02-26T17:58:34.438Z,6.00
2023-02-26T18:01:04.973Z,5.90
2023-02-26T18:03:35.603Z,6.00
2023-02-26T18:06:05.453Z,5.80
2023-02-26T18:08:35.792Z,5.70
2023-02-26T18:11:05.842Z,5.80
2023-02-26T18:13:35.758Z,5.70
2023-02-26T18:16:06.494Z,5.70
2023-02-26T18:18:36.035Z,5.60
2023-02-26T18:21:05.780Z,5.50
2023-02-26T18:23:35.254Z,5.40
2023-02-26T18:26:06.158Z,5.30
2023-02-26T18:28:35.673Z,5.50
2023-02-26T18:31:07.216Z,5.60
2023-02-26T18:33:38.783Z,5.50
2023-02-26T18:36:09.089Z,5.20
2023-02-26T18:38:38.509Z,5.20
2023-02-26T18:41:07.937Z,5.20
2023-02-26T18:43:37.418Z,5.10
2023-02-26T18:46:07.234Z,4.90
2023-02-26T18:48:36.700Z,4.90
2023-02-26T18:51:07.346Z,4.80
2023-02-26T18:53:36.851Z,4.70
2023-02-26T18:56:06.615Z,4.60
2023-02-26T18:58:36.863Z,4.60
2023-02-26T19:01:07.877Z,4.50
2023-02-26T19:03:38.137Z,4.50
2023-02-26T19:06:09.935Z,4.60
2023-02-26T19:08:39.685Z,4.50
2023-02-26T19:11:09.106Z,4.40
2023-02-26T19:13:39.152Z,4.40
2023-02-26T19:16:08.753Z,4.50
2023-02-26T19:18:38.308Z,4.50
2023-02-26T19:21:07.986Z,4.40
2023-02-26T19:23:37.409Z,4.60
2023-02-26T19:26:07.162Z,4.50
2023-02-26T19:28:37.694Z,4.60
2023-02-26T19:31:07.255Z,4.40
2023-02-26T19:33:36.716Z,4.60
2023-02-26T19:36:07.017Z,4.50
2023-02-26T19:38:36.515Z,4.50
2023-02-26T19:41:06.055Z,4.40
2023-02-26T19:43:35.546Z,4.40
2023-02-26T19:46:05.135Z,4.40
2023-02-26T19:48:34.959Z,4.30
2023-02-26T19:51:04.725Z,4.10
2023-02-26T19:53:35.818Z,4.20
2023-02-26T19:56:06.973Z,4.20
2023-02-26T19:58:36.875Z,4.20
2023-02-26T20:01:10.202Z,4.20
2023-02-26T20:03:40.023Z,4.20
2023-02-26T20:06:10.505Z,4.10
2023-02-26T20:08:41.885Z,3.90
2023-02-26T20:11:11.436Z,3.80
2023-02-26T20:13:40.863Z,3.80
2023-02-26T20:16:11.689Z,3.90
2023-02-26T20:18:41.317Z,3.90
2023-02-26T20:21:11.796Z,3.90
2023-02-26T20:23:41.958Z,3.80
2023-02-26T20:26:14.407Z,3.70
2023-02-26T20:28:45.009Z,3.70
2023-02-26T20:31:14.640Z,3.60
2023-02-26T20:33:44.496Z,3.60
2023-02-26T20:36:14.468Z,3.60
2023-02-26T20:38:44.044Z,3.70
2023-02-26T20:41:13.519Z,3.70
2023-02-26T20:43:43.133Z,3.80
2023-02-26T20:46:13.510Z,3.60
2023-02-26T20:48:45.059Z,3.70
2023-02-26T20:51:16.235Z,3.80
2023-02-26T20:53:46.042Z,3.80
2023-02-26T20:56:15.542Z,3.80
2023-02-26T20:58:45.723Z,3.80
2023-02-26T21:01:15.793Z,3.80
2023-02-26T21:03:45.207Z,3.60
2023-02-26T21:06:14.633Z,3.60
2023-02-26T21:08:44.249Z,3.50
2023-02-26T21:11:14.054Z,3.60
2023-02-26T21:13:45.228Z,3.60
2023-02-26T21:16:14.917Z,3.60
2023-02-26T21:18:44.508Z,3.50
2023-02-26T21:21:14.231Z,3.60
2023-02-26T21:23:46.692Z,3.40
2023-02-26T21:26:16.445Z,3.50
2023-02-26T21:28:47.614Z,3.40
2023-02-26T21:31:18.014Z,3.40
2023-02-26T21:33:46.811Z,3.30
2023-02-26T21:36:15.943Z,3.20
2023-02-26T21:38:44.943Z,3.30
2023-02-26T21:41:14.273Z,3.30
2023-02-26T21:43:43.929Z,3.20
2023-02-26T21:46:13.836Z,3.40
2023-02-26T21:48:45.043Z,3.30
2023-02-26T21:51:15.789Z,3.30
2023-02-26T21:53:46.989Z,3.30
2023-02-26T21:56:17.652Z,3.30
2023-02-26T21:58:47.888Z,3.30
2023-02-26T22:01:17.413Z,3.10
2023-02-26T22:03:46.961Z,3.10
2023-02-26T22:06:16.378Z,3.00
2023-02-26T22:08:45.796Z,3.10
2023-02-26T22:11:15.350Z,3.10
2023-02-26T22:13:44.741Z,3.10
2023-02-26T22:16:14.362Z,3.10
2023-02-26T22:18:44.096Z,2.90
2023-02-26T22:21:13.626Z,2.90
2023-02-26T22:23:45.031Z,2.70
2023-02-26T22:26:14.458Z,2.80
2023-02-26T22:28:43.962Z,2.80
2023-02-26T22:31:13.637Z,2.90
2023-02-26T22:33:43.213Z,2.80
2023-02-26T22:36:12.665Z,2.80
2023-02-26T22:38:42.339Z,2.70
2023-02-26T22:41:11.757Z,2.70
2023-02-26T22:43:41.183Z,2.60
2023-02-26T22:46:10.896Z,2.50
2023-02-26T22:48:40.450Z,2.50
2023-02-26T22:51:09.909Z,2.40
2023-02-26T22:53:39.496Z,2.40
2023-02-26T22:56:09.630Z,2.40
2023-02-26T22:58:39.063Z,2.40
2023-02-26T23:01:09.347Z,2.30
2023-02-26T23:03:39.064Z,2.30
2023-02-26T23:06:08.940Z,2.30
2023-02-26T23:08:38.504Z,2.30
2023-02-26T23:11:09.444Z,2.40
2023-02-26T23:13:39.393Z,2.30
2023-02-26T23:16:11.524Z,2.20
2023-02-26T23:18:41.858Z,2.20
2023-02-26T23:21:12.095Z,2.20
2023-02-26T23:23:41.731Z,2.30
2023-02-26T23:26:13.300Z,2.30
2023-02-26T23:28:42.726Z,2.20
2023-02-26T23:31:12.309Z,2.10
2023-02-26T23:33:42.036Z,2.10
2023-02-26T23:36:11.591Z,2.10
2023-02-26T23:38:41.084Z,2.10
2023-02-26T23:41:10.754Z,2.00
2023-02-26T23:43:40.842Z,2.10
2023-02-26T23:46:10.345Z,2.00
2023-02-26T23:48:40.294Z,2.10
2023-02-26T23:51:09.717Z,2.00
2023-02-26T23:53:39.167Z,1.90
2023-02-26T23:56:08.982Z,1.80
2023-02-26T23:58:38.596Z,1.70
